Time,TemperatureF,DewpointF,PressureIn,WindDirection,WindDirectionDegrees,WindSpeedMPH,WindSpeedGustMPH,Humidity,HourlyPrecipIn,Conditions,Clouds,dailyrainin,SoftwareType,DateUTC
2013-08-24 00:08:00,68.5,67.0,30.05,SSW,204,0.0,1.0,96,0.01,,,0.00,weatherlink.com 1.10,2013-08-24 04:08:00,
2013-08-24 00:23:00,68.2,67.0,30.05,SSW,204,0.0,0.0,96,0.01,,,0.00,weatherlink.com 1.10,2013-08-24 04:23:00,
2013-08-24 00:38:00,68.3,68.0,30.05,SSW,205,0.0,1.0,97,0.01,,,0.00,weatherlink.com 1.10,2013-08-24 04:38:00,
2013-08-24 00:53:00,68.1,67.0,30.05,SSW,204,0.0,0.0,97,0.00,,,0.00,weatherlink.com 1.10,2013-08-24 04:53:00,
2013-08-24 01:08:00,68.1,67.0,30.05,SSW,205,0.0,0.0,97,0.00,,,0.00,weatherlink.com 1.10,2013-08-24 05:08:00,
2013-08-24 01:23:00,68.2,67.0,30.04,SSW,204,0.0,1.0,97,0.00,,,0.00,weatherlink.com 1.10,2013-08-24 05:23:00,
2013-08-24 01:38:00,68.4,68.0,30.04,SSW,204,0.0,1.0,97,0.00,,,0.00,weatherlink.com 1.10,2013-08-24 05:38:00,
2013-08-24 01:53:00,68.5,68.0,30.04,SSW,203,1.0,1.0,97,0.00,,,0.00,weatherlink.com 1.10,2013-08-24 05:53:00,
2013-08-24 02:08:00,68.6,68.0,30.05,WSW,252,0.0,4.0,96,0.00,,,0.00,weatherlink.com 1.10,2013-08-24 06:08:00,
2013-08-24 02:23:00,68.3,67.0,30.05,WSW,252,0.0,1.0,95,0.00,,,0.00,weatherlink.com 1.10,2013-08-24 06:23:00,
2013-08-24 02:38:00,68.1,67.0,30.06,South,189,0.0,1.0,96,0.00,,,0.00,weatherlink.com 1.10,2013-08-24 06:38:00,
2013-08-24 02:53:00,67.8,67.0,30.06,South,189,0.0,1.0,96,0.00,,,0.00,weatherlink.com 1.10,2013-08-24 06:53:00,
2013-08-24 03:08:00,67.6,67.0,30.07,South,188,0.0,1.0,97,0.00,,,0.00,weatherlink.com 1.10,2013-08-24 07:08:00,
2013-08-24 03:23:00,67.3,67.0,30.07,South,188,0.0,1.0,97,0.00,,,0.00,weatherlink.com 1.10,2013-08-24 07:23:00,
2013-08-24 03:38:00,67.1,66.0,30.07,South,189,0.0,1.0,97,0.00,,,0.00,weatherlink.com 1.10,2013-08-24 07:38:00,
2013-08-24 03:53:00,67.0,66.0,30.08,South,188,0.0,1.0,97,0.00,,,0.00,weatherlink.com 1.10,2013-08-24 07:53:00,
2013-08-24 04:08:00,66.7,66.0,30.09,South,188,0.0,1.0,97,0.00,,,0.00,weatherlink.com 1.10,2013-08-24 08:08:00,
2013-08-24 04:23:00,66.6,66.0,30.09,South,188,0.0,0.0,97,0.00,,,0.00,weatherlink.com 1.10,2013-08-24 08:23:00,
2013-08-24 04:38:00,66.4,66.0,30.10,South,188,0.0,0.0,97,0.00,,,0.00,weatherlink.com 1.10,2013-08-24 08:38:00,
2013-08-24 04:53:00,66.2,65.0,30.11,South,189,0.0,1.0,97,0.00,,,0.00,weatherlink.com 1.10,2013-08-24 08:53:00,
2013-08-24 05:08:00,66.2,65.0,30.11,South,190,0.0,1.0,97,0.00,,,0.00,weatherlink.com 1.10,2013-08-24 09:08:00,
2013-08-24 05:23:00,66.2,65.0,30.11,South,190,0.0,0.0,97,0.00,,,0.00,weatherlink.com 1.10,2013-08-24 09:23:00,
2013-08-24 05:38:00,66.2,65.0,30.12,South,190,0.0,0.0,97,0.00,,,0.00,weatherlink.com 1.10,2013-08-24 09:38:00,
2013-08-24 05:53:00,66.0,65.0,30.12,South,190,0.0,0.0,97,0.00,,,0.00,weatherlink.com 1.10,2013-08-24 09:53:00,
2013-08-24 06:08:00,65.6,65.0,30.12,South,190,0.0,0.0,97,0.00,,,0.00,weatherlink.com 1.10,2013-08-24 10:08:00,
2013-08-24 06:23:00,65.2,64.0,30.12,South,190,0.0,1.0,97,0.00,,,0.00,weatherlink.com 1.10,2013-08-24 10:23:00,
2013-08-24 06:38:00,65.0,64.0,30.13,South,190,0.0,0.0,97,0.00,,,0.00,weatherlink.com 1.10,2013-08-24 10:38:00,
2013-08-24 06:54:00,64.5,64.0,30.14,South,189,0.0,0.0,97,0.00,,,0.00,weatherlink.com 1.10,2013-08-24 10:54:00,
2013-08-24 07:09:00,64.2,63.0,30.15,South,189,0.0,0.0,97,0.00,,,0.00,weatherlink.com 1.10,2013-08-24 11:09:00,
2013-08-24 07:24:00,63.9,63.0,30.16,South,190,0.0,1.0,97,0.00,,,0.00,weatherlink.com 1.10,2013-08-24 11:24:00,
2013-08-24 07:39:00,63.8,63.0,30.17,South,190,0.0,0.0,98,0.00,,,0.00,weatherlink.com 1.10,2013-08-24 11:39:00,
2013-08-24 07:54:00,64.0,64.0,30.18,South,190,0.0,0.0,98,0.00,,,0.00,weatherlink.com 1.10,2013-08-24 11:54:00,
2013-08-24 08:09:00,64.5,64.0,30.18,South,190,0.0,0.0,98,0.00,,,0.00,weatherlink.com 1.10,2013-08-24 12:09:00,
2013-08-24 08:24:00,65.1,65.0,30.18,South,190,0.0,0.0,98,0.00,,,0.00,weatherlink.com 1.10,2013-08-24 12:24:00,
2013-08-24 08:39:00,65.7,65.0,30.19,South,190,0.0,0.0,98,0.00,,,0.00,weatherlink.com 1.10,2013-08-24 12:39:00,
2013-08-24 08:54:00,66.2,66.0,30.19,South,190,0.0,1.0,98,0.00,,,0.00,weatherlink.com 1.10,2013-08-24 12:54:00,
2013-08-24 09:09:00,66.5,66.0,30.19,South,189,0.0,1.0,97,0.00,,,0.00,weatherlink.com 1.10,2013-08-24 13:09:00,
2013-08-24 09:24:00,66.5,65.0,30.19,South,174,0.0,1.0,96,0.00,,,0.00,weatherlink.com 1.10,2013-08-24 13:24:00,
2013-08-24 09:39:00,67.2,65.0,30.20,ESE,120,0.0,2.0,93,0.00,,,0.00,weatherlink.com 1.10,2013-08-24 13:39:00,
2013-08-24 09:54:00,68.3,66.0,30.20,WNW,293,0.0,4.0,91,0.00,,,0.00,weatherlink.com 1.10,2013-08-24 13:54:00,
2013-08-24 10:09:00,69.1,65.0,30.20,WNW,284,0.0,4.0,87,0.00,,,0.00,weatherlink.com 1.10,2013-08-24 14:09:00,
2013-08-24 10:24:00,69.4,65.0,30.21,SSE,153,0.0,1.0,87,0.00,,,0.00,weatherlink.com 1.10,2013-08-24 14:24:00,
2013-08-24 10:39:00,70.3,66.0,30.21,ESE,121,0.0,2.0,85,0.00,,,0.00,weatherlink.com 1.10,2013-08-24 14:39:00,
2013-08-24 10:54:00,70.8,66.0,30.21,South,173,0.0,1.0,85,0.00,,,0.00,weatherlink.com 1.10,2013-08-24 14:54:00,
2013-08-24 11:09:00,71.5,67.0,30.21,WNW,283,2.0,3.0,84,0.00,,,0.00,weatherlink.com 1.10,2013-08-24 15:09:00,
2013-08-24 11:24:00,72.7,66.0,30.21,NNW,337,0.0,7.0,80,0.00,,,0.00,weatherlink.com 1.10,2013-08-24 15:24:00,
2013-08-24 11:39:00,73.2,67.0,30.22,SE,135,2.0,4.0,81,0.00,,,0.00,weatherlink.com 1.10,2013-08-24 15:39:00,
2013-08-24 11:54:00,73.6,66.0,30.22,West,262,3.0,3.0,77,0.00,,,0.00,weatherlink.com 1.10,2013-08-24 15:54:00,
2013-08-24 12:09:00,74.7,66.0,30.21,WSW,257,0.0,6.0,75,0.00,,,0.00,weatherlink.com 1.10,2013-08-24 16:09:00,
2013-08-24 12:24:00,76.1,67.0,30.21,WSW,253,0.0,2.0,73,0.00,,,0.00,weatherlink.com 1.10,2013-08-24 16:24:00,
2013-08-24 12:39:00,77.4,68.0,30.21,West,273,0.0,5.0,72,0.00,,,0.00,weatherlink.com 1.10,2013-08-24 16:39:00,
2013-08-24 12:54:00,77.8,66.0,30.20,SE,133,1.0,5.0,67,0.00,,,0.00,weatherlink.com 1.10,2013-08-24 16:54:00,
2013-08-24 13:10:00,79.0,66.0,30.20,NNE,16,1.0,7.0,64,0.00,,,0.00,weatherlink.com 1.10,2013-08-24 17:10:00,
2013-08-24 13:25:00,79.3,67.0,30.19,NNE,27,1.0,4.0,67,0.00,,,0.00,weatherlink.com 1.10,2013-08-24 17:25:00,
2013-08-24 13:40:00,79.7,65.0,30.20,WNW,288,2.0,7.0,62,0.00,,,0.00,weatherlink.com 1.10,2013-08-24 17:40:00,
2013-08-24 13:55:00,79.8,68.0,30.20,NW,304,4.0,6.0,67,0.00,,,0.00,weatherlink.com 1.10,2013-08-24 17:55:00,
2013-08-24 14:10:00,80.0,64.0,30.20,WSW,253,1.0,6.0,58,0.00,,,0.00,weatherlink.com 1.10,2013-08-24 18:10:00,
2013-08-24 14:25:00,79.9,64.0,30.20,SSW,194,1.0,6.0,59,0.00,,,0.00,weatherlink.com 1.10,2013-08-24 18:25:00,
2013-08-24 14:40:00,80.4,64.0,30.20,NW,318,4.0,4.0,58,0.00,,,0.00,weatherlink.com 1.10,2013-08-24 18:40:00,
2013-08-24 14:55:00,80.3,64.0,30.20,West,273,1.0,7.0,58,0.00,,,0.00,weatherlink.com 1.10,2013-08-24 18:55:00,
2013-08-24 15:10:00,81.8,66.0,30.20,WNW,298,1.0,2.0,60,0.00,,,0.00,weatherlink.com 1.10,2013-08-24 19:10:00,
2013-08-24 15:25:00,81.5,65.0,30.19,South,173,0.0,4.0,58,0.00,,,0.00,weatherlink.com 1.10,2013-08-24 19:25:00,
2013-08-24 15:40:00,81.1,65.0,30.20,WNW,283,2.0,8.0,58,0.00,,,0.00,weatherlink.com 1.10,2013-08-24 19:40:00,
2013-08-24 15:55:00,80.1,64.0,30.19,SSW,197,1.0,5.0,58,0.00,,,0.00,weatherlink.com 1.10,2013-08-24 19:55:00,
2013-08-24 16:10:00,79.8,65.0,30.19,WSW,237,1.0,5.0,61,0.00,,,0.00,weatherlink.com 1.10,2013-08-24 20:10:00,
2013-08-24 16:25:00,78.7,65.0,30.19,West,264,3.0,5.0,62,0.00,,,0.00,weatherlink.com 1.10,2013-08-24 20:25:00,
2013-08-24 16:40:00,78.3,65.0,30.19,WNW,294,0.0,3.0,63,0.00,,,0.00,weatherlink.com 1.10,2013-08-24 20:40:00,
2013-08-24 16:55:00,78.1,64.0,30.19,SSW,203,0.0,6.0,62,0.00,,,0.00,weatherlink.com 1.10,2013-08-24 20:55:00,
2013-08-24 17:10:00,77.9,64.0,30.19,WNW,283,1.0,3.0,62,0.00,,,0.00,weatherlink.com 1.10,2013-08-24 21:10:00,
2013-08-24 17:25:00,77.2,65.0,30.19,WSW,239,0.0,2.0,67,0.00,,,0.00,weatherlink.com 1.10,2013-08-24 21:25:00,
2013-08-24 17:40:00,76.9,65.0,30.19,West,272,0.0,2.0,67,0.00,,,0.00,weatherlink.com 1.10,2013-08-24 21:40:00,
2013-08-24 17:55:00,76.4,65.0,30.19,WNW,284,1.0,1.0,68,0.00,,,0.00,weatherlink.com 1.10,2013-08-24 21:55:00,
2013-08-24 18:10:00,76.2,66.0,30.19,WNW,283,0.0,4.0,70,0.00,,,0.00,weatherlink.com 1.10,2013-08-24 22:10:00,
2013-08-24 18:25:00,75.6,66.0,30.19,WNW,291,0.0,4.0,71,0.00,,,0.00,weatherlink.com 1.10,2013-08-24 22:25:00,
2013-08-24 18:40:00,75.2,66.0,30.19,West,273,0.0,2.0,73,0.00,,,0.00,weatherlink.com 1.10,2013-08-24 22:40:00,
2013-08-24 18:55:00,74.3,66.0,30.19,West,279,0.0,1.0,74,0.00,,,0.00,weatherlink.com 1.10,2013-08-24 22:55:00,
2013-08-24 19:10:00,73.6,66.0,30.20,West,280,0.0,1.0,76,0.00,,,0.00,weatherlink.com 1.10,2013-08-24 23:10:00,
2013-08-24 19:25:00,72.7,66.0,30.20,West,279,0.0,0.0,79,0.00,,,0.00,weatherlink.com 1.10,2013-08-24 23:25:00,
2013-08-24 19:40:00,71.6,66.0,30.20,West,279,0.0,0.0,81,0.00,,,0.00,weatherlink.com 1.10,2013-08-24 23:40:00,
2013-08-24 19:55:00,70.3,66.0,30.20,West,279,0.0,0.0,85,0.00,,,0.00,weatherlink.com 1.10,2013-08-24 23:55:00,
2013-08-24 20:10:00,68.7,65.0,30.21,West,279,0.0,0.0,87,0.00,,,0.00,weatherlink.com 1.10,2013-08-25 00:10:00,
2013-08-24 20:25:00,67.4,65.0,30.21,West,280,0.0,0.0,90,0.00,,,0.00,weatherlink.com 1.10,2013-08-25 00:25:00,
2013-08-24 20:40:00,66.4,64.0,30.22,West,280,0.0,1.0,91,0.00,,,0.00,weatherlink.com 1.10,2013-08-25 00:40:00,
2013-08-24 20:55:00,65.5,63.0,30.22,West,280,0.0,1.0,92,0.00,,,0.00,weatherlink.com 1.10,2013-08-25 00:55:00,
2013-08-24 21:10:00,64.9,63.0,30.23,West,279,0.0,0.0,93,0.00,,,0.00,weatherlink.com 1.10,2013-08-25 01:10:00,
2013-08-24 21:25:00,64.3,63.0,30.23,West,281,0.0,0.0,94,0.00,,,0.00,weatherlink.com 1.10,2013-08-25 01:25:00,
2013-08-24 21:40:00,63.9,62.0,30.24,West,279,0.0,1.0,94,0.00,,,0.00,weatherlink.com 1.10,2013-08-25 01:40:00,
2013-08-24 21:55:00,63.5,62.0,30.24,West,281,0.0,0.0,95,0.00,,,0.00,weatherlink.com 1.10,2013-08-25 01:55:00,
2013-08-24 22:10:00,63.2,62.0,30.25,West,281,0.0,0.0,95,0.00,,,0.00,weatherlink.com 1.10,2013-08-25 02:10:00,
2013-08-24 22:25:00,62.7,61.0,30.25,West,281,0.0,0.0,95,0.00,,,0.00,weatherlink.com 1.10,2013-08-25 02:25:00,
2013-08-24 22:40:00,62.5,61.0,30.26,West,281,0.0,0.0,95,0.00,,,0.00,weatherlink.com 1.10,2013-08-25 02:40:00,
2013-08-24 22:55:00,62.2,61.0,30.27,West,281,0.0,0.0,95,0.00,,,0.00,weatherlink.com 1.10,2013-08-25 02:55:00,
2013-08-24 23:10:00,61.7,60.0,30.27,West,281,0.0,0.0,95,0.00,,,0.00,weatherlink.com 1.10,2013-08-25 03:10:00,
2013-08-24 23:25:00,61.4,60.0,30.27,West,281,0.0,1.0,96,0.00,,,0.00,weatherlink.com 1.10,2013-08-25 03:25:00,
2013-08-24 23:40:00,61.1,60.0,30.27,West,281,0.0,0.0,96,0.00,,,0.00,weatherlink.com 1.10,2013-08-25 03:40:00,
2013-08-24 23:55:00,60.6,60.0,30.28,West,281,0.0,0.0,96,0.00,,,0.00,weatherlink.com 1.10,2013-08-25 03:55:00,